createdAt,value
2023-03-06T15:26:01.458Z,23.71
2023-03-06T15:26:37.216Z,23.66
2023-03-06T15:27:02.912Z,23.62
2023-03-06T15:27:33.176Z,23.60
2023-03-06T15:27:56.595Z,23.55
2023-03-06T15:28:33.265Z,23.45
2023-03-06T15:29:12.832Z,23.39
2023-03-06T15:29:40.314Z,23.42
2023-03-06T15:30:31.098Z,23.44
2023-03-06T15:31:22.360Z,23.38
2023-03-06T15:31:46.303Z,23.27
2023-03-06T15:32:42.596Z,23.23
2023-03-06T15:33:27.440Z,23.18
2023-03-06T15:34:09.977Z,23.17
2023-03-06T15:34:32.194Z,23.11
2023-03-06T15:35:28.486Z,23.17
2023-03-06T15:36:21.151Z,23.22
2023-03-06T15:37:00.055Z,23.15
2023-03-06T15:37:36.422Z,23.03
2023-03-06T15:38:35.592Z,22.95
2023-03-06T15:39:01.121Z,22.92
2023-03-06T15:39:32.095Z,22.93
2023-03-06T15:40:09.477Z,23.05
2023-03-06T15:40:32.303Z,23.08
2023-03-06T15:41:00.144Z,23.05
2023-03-06T15:41:45.310Z,23.10
2023-03-06T15:42:23.749Z,23.10
2023-03-06T15:42:46.751Z,23.08
2023-03-06T15:43:14.183Z,23.03
2023-03-06T15:43:46.714Z,23.01
2023-03-06T15:44:13.463Z,22.90
2023-03-06T15:44:35.277Z,22.92
2023-03-06T15:45:09.225Z,22.97
2023-03-06T15:45:32.230Z,22.93
2023-03-06T15:45:59.739Z,22.93
2023-03-06T15:46:21.624Z,22.96
2023-03-06T15:46:47.294Z,23.00
2023-03-06T15:47:12.283Z,22.98
2023-03-06T15:47:34.424Z,22.94
2023-03-06T15:47:56.649Z,23.03
2023-03-06T15:48:21.145Z,23.05
2023-03-06T15:48:53.860Z,23.07
2023-03-06T15:49:18.353Z,23.08
2023-03-06T15:49:40.778Z,23.14
2023-03-06T15:50:02.617Z,23.16
2023-03-06T15:50:27.190Z,23.17
2023-03-06T15:50:49.084Z,23.21
2023-03-06T15:51:10.863Z,23.23
2023-03-06T15:51:33.155Z,23.25
2023-03-06T15:51:57.139Z,23.24
2023-03-06T15:52:21.024Z,23.23
2023-03-06T15:52:44.418Z,23.26
2023-03-06T15:53:06.245Z,23.25
2023-03-06T15:53:37.163Z,23.24
2023-03-06T15:54:12.271Z,23.26
2023-03-06T15:54:43.124Z,23.26
2023-03-06T15:55:05.266Z,23.22
2023-03-06T15:55:27.294Z,23.23
2023-03-06T15:55:51.192Z,23.23
2023-03-06T15:56:13.580Z,23.22
2023-03-06T15:56:53.921Z,23.27
2023-03-06T15:57:59.778Z,23.39
2023-03-06T15:58:41.295Z,23.44
2023-03-06T15:59:43.179Z,23.77
2023-03-06T16:00:25.315Z,23.96
2023-03-06T16:00:48.610Z,24.06
2023-03-06T16:01:17.551Z,24.10
2023-03-06T16:01:40.756Z,24.18
2023-03-06T16:02:11.870Z,24.21
2023-03-06T16:02:33.860Z,24.21
2023-03-06T16:02:59.199Z,24.02
2023-03-06T16:03:21.190Z,23.98
2023-03-06T16:03:43.798Z,23.99
2023-03-06T16:04:06.729Z,24.08
2023-03-06T16:04:29.010Z,24.08
2023-03-06T16:04:51.532Z,24.06
2023-03-06T16:05:18.792Z,24.05
2023-03-06T16:05:41.080Z,24.14
2023-03-06T16:06:03.951Z,24.17
2023-03-06T16:06:28.240Z,24.14
2023-03-06T16:06:50.206Z,24.17
2023-03-06T16:07:20.048Z,24.13
2023-03-06T16:07:41.864Z,23.97
2023-03-06T16:08:04.893Z,23.84
2023-03-06T16:08:26.737Z,23.84
2023-03-06T16:08:48.598Z,23.92
2023-03-06T16:09:11.330Z,23.96
2023-03-06T16:09:33.132Z,24.01
2023-03-06T16:09:54.971Z,24.09
2023-03-06T16:10:20.156Z,24.14
2023-03-06T16:10:43.987Z,24.15
2023-03-06T16:11:05.815Z,24.20
2023-03-06T16:11:41.897Z,24.16
2023-03-06T16:12:06.659Z,24.16
2023-03-06T16:12:31.001Z,24.22
2023-03-06T16:12:57.592Z,24.14
2023-03-06T16:13:22.228Z,24.09
2023-03-06T16:13:45.901Z,24.17
2023-03-06T16:14:24.438Z,24.23
2023-03-06T16:14:47.814Z,24.28
2023-03-06T16:15:21.786Z,24.32
2023-03-06T16:15:50.192Z,24.36
2023-03-06T16:16:19.060Z,24.18
2023-03-06T16:16:41.442Z,24.11
2023-03-06T16:17:03.286Z,24.04
2023-03-06T16:17:25.145Z,24.02
2023-03-06T16:17:50.683Z,24.06
2023-03-06T16:18:13.387Z,24.08
2023-03-06T16:18:35.391Z,24.10
2023-03-06T16:18:57.545Z,24.09
2023-03-06T16:19:27.377Z,24.14
2023-03-06T16:19:49.916Z,24.15
2023-03-06T16:20:18.820Z,24.13
2023-03-06T16:20:41.762Z,24.09
2023-03-06T16:21:03.776Z,24.11
2023-03-06T16:21:25.709Z,24.12
2023-03-06T16:21:47.939Z,24.13
2023-03-06T16:22:09.924Z,24.11
2023-03-06T16:22:31.683Z,24.13
2023-03-06T16:22:54.998Z,24.13
2023-03-06T16:23:16.869Z,24.18
2023-03-06T16:23:39.644Z,24.25
2023-03-06T16:24:01.502Z,24.29
2023-03-06T16:24:25.037Z,24.25
2023-03-06T16:24:46.893Z,24.27
2023-03-06T16:25:09.002Z,24.16
2023-03-06T16:25:31.034Z,24.15
2023-03-06T16:25:52.812Z,24.11
2023-03-06T16:26:31.296Z,24.15
2023-03-06T16:26:56.222Z,24.20
2023-03-06T16:27:23.651Z,24.19
2023-03-06T16:28:04.544Z,24.17
2023-03-06T16:28:28.111Z,24.19
2023-03-06T16:28:49.931Z,24.21
2023-03-06T16:29:30.665Z,24.15
2023-03-06T16:30:18.322Z,24.10
2023-03-06T16:30:58.718Z,24.07
2023-03-06T16:31:39.307Z,24.11
2023-03-06T16:32:22.833Z,24.13
2023-03-06T16:33:03.707Z,24.14
2023-03-06T16:33:45.884Z,24.13
2023-03-06T16:34:28.080Z,24.02
2023-03-06T16:35:11.044Z,24.00
2023-03-06T16:35:53.215Z,23.98
2023-03-06T16:36:35.511Z,24.03
2023-03-06T16:37:17.661Z,23.94
2023-03-06T16:38:00.461Z,23.90
2023-03-06T16:38:42.597Z,23.96
2023-03-06T16:39:24.974Z,23.99
2023-03-06T16:40:32.912Z,23.99
2023-03-06T16:41:17.101Z,24.03
2023-03-06T16:41:59.208Z,24.01
2023-03-06T16:42:41.363Z,24.04
2023-03-06T16:43:23.520Z,24.05
2023-03-06T16:44:07.901Z,24.00
2023-03-06T16:44:50.138Z,24.00
2023-03-06T16:45:37.553Z,24.00
2023-03-06T16:46:23.921Z,23.99
2023-03-06T16:47:06.324Z,24.01
2023-03-06T16:47:49.677Z,23.97
2023-03-06T16:48:31.902Z,23.96
2023-03-06T16:49:17.800Z,23.91
2023-03-06T16:50:02.461Z,23.99
2023-03-06T16:50:45.433Z,23.97
2023-03-06T16:51:27.611Z,23.93
2023-03-06T16:52:11.318Z,23.93
2023-03-06T16:52:54.749Z,23.93
2023-03-06T16:53:36.864Z,23.92
2023-03-06T16:54:19.473Z,23.90
2023-03-06T16:55:01.637Z,23.92
2023-03-06T16:55:43.942Z,23.90
2023-03-06T16:56:25.970Z,23.87
2023-03-06T16:57:13.853Z,23.84
2023-03-06T16:57:56.123Z,23.84
2023-03-06T16:58:39.492Z,23.86
2023-03-06T16:59:21.763Z,23.88
2023-03-06T17:00:06.703Z,23.88
2023-03-06T17:00:48.982Z,23.89
2023-03-06T17:01:31.228Z,23.85
2023-03-06T17:02:13.410Z,23.86
2023-03-06T17:02:55.937Z,23.82
2023-03-06T17:03:39.457Z,23.80
2023-03-06T17:04:21.616Z,23.80
2023-03-06T17:05:05.223Z,23.83
2023-03-06T17:05:47.384Z,23.81
2023-03-06T17:06:30.877Z,23.82
2023-03-06T17:07:13.113Z,23.86
2023-03-06T17:07:56.227Z,23.83
2023-03-06T17:08:38.322Z,23.81
2023-03-06T17:09:20.475Z,23.82
2023-03-06T17:10:07.321Z,23.82
2023-03-06T17:10:50.299Z,23.80
2023-03-06T17:11:32.502Z,23.78
2023-03-06T17:12:14.623Z,23.76
2023-03-06T17:12:57.395Z,23.67
2023-03-06T17:13:40.622Z,23.65
2023-03-06T17:14:22.789Z,23.63
2023-03-06T17:15:06.533Z,23.67
2023-03-06T17:15:59.581Z,23.70
2023-03-06T17:16:42.723Z,23.71
2023-03-06T17:17:24.874Z,23.70
2023-03-06T17:18:07.388Z,23.69
2023-03-06T17:18:49.999Z,23.69
2023-03-06T17:19:32.250Z,23.70
2023-03-06T17:20:15.508Z,23.71
2023-03-06T17:20:58.732Z,23.70
2023-03-06T17:21:42.090Z,23.68
2023-03-06T17:22:24.577Z,23.69
2023-03-06T17:23:06.674Z,23.69
2023-03-06T17:23:51.145Z,23.68
2023-03-06T17:24:33.362Z,23.72
2023-03-06T17:25:15.516Z,23.73
2023-03-06T17:26:09.144Z,23.76
2023-03-06T17:26:51.540Z,23.75
2023-03-06T17:27:34.783Z,23.77
2023-03-06T17:28:16.808Z,23.77
2023-03-06T17:28:59.129Z,23.81
2023-03-06T17:29:41.237Z,23.84
2023-03-06T17:30:26.295Z,23.85
2023-03-06T17:31:13.157Z,23.86
2023-03-06T17:31:55.736Z,23.85
2023-03-06T17:32:41.320Z,23.84
2023-03-06T17:33:24.634Z,23.83
2023-03-06T17:34:06.954Z,23.84
2023-03-06T17:34:49.001Z,23.86
2023-03-06T17:35:31.206Z,23.88
2023-03-06T17:36:15.119Z,23.91
2023-03-06T17:36:57.285Z,23.93
2023-03-06T17:37:39.631Z,23.91
2023-03-06T17:38:21.782Z,23.89
2023-03-06T17:39:04.528Z,23.84
2023-03-06T17:39:47.426Z,23.83
2023-03-06T17:40:29.902Z,23.78
2023-03-06T17:41:13.579Z,23.76
2023-03-06T17:41:58.473Z,23.76
2023-03-06T17:42:40.556Z,23.77
2023-03-06T17:43:23.035Z,23.74
2023-03-06T17:44:05.343Z,23.75
2023-03-06T17:44:48.433Z,23.75
2023-03-06T17:45:30.832Z,23.81
2023-03-06T17:46:13.727Z,23.86
2023-03-06T17:46:56.403Z,23.87
2023-03-06T17:47:38.533Z,23.87
2023-03-06T17:48:20.743Z,23.88
2023-03-06T17:49:03.270Z,23.81
2023-03-06T17:49:45.698Z,23.66
2023-03-06T17:50:28.482Z,23.71
2023-03-06T17:51:11.634Z,23.75
2023-03-06T17:51:56.604Z,23.80
2023-03-06T17:52:39.164Z,23.79
2023-03-06T17:53:22.176Z,23.80
2023-03-06T17:54:04.855Z,23.79
2023-03-06T17:54:46.940Z,23.76
2023-03-06T17:55:30.175Z,23.78
2023-03-06T17:56:14.312Z,23.75
2023-03-06T17:57:01.250Z,23.76
2023-03-06T17:57:43.682Z,23.75
2023-03-06T17:58:27.731Z,23.74
2023-03-06T17:59:10.672Z,23.71
2023-03-06T17:59:53.273Z,23.70
2023-03-06T18:00:36.226Z,23.71
2023-03-06T18:01:27.631Z,23.69
2023-03-06T18:02:10.942Z,23.68
2023-03-06T18:02:53.461Z,23.68
2023-03-06T18:03:38.455Z,23.69
2023-03-06T18:04:20.802Z,23.68
2023-03-06T18:05:03.828Z,23.68
2023-03-06T18:05:46.023Z,23.67
2023-03-06T18:06:30.748Z,23.64
2023-03-06T18:07:13.624Z,23.61
2023-03-06T18:07:55.953Z,23.60
2023-03-06T18:08:38.947Z,23.62
2023-03-06T18:09:21.252Z,23.62
2023-03-06T18:10:04.638Z,23.60
2023-03-06T18:10:47.824Z,23.60
2023-03-06T18:11:31.044Z,23.61
2023-03-06T18:12:17.370Z,23.63
2023-03-06T18:12:59.624Z,23.61
2023-03-06T18:13:44.348Z,23.67
2023-03-06T18:14:37.422Z,23.67
2023-03-06T18:15:23.461Z,23.67
2023-03-06T18:16:17.301Z,23.66
2023-03-06T18:17:00.940Z,23.65
2023-03-06T18:17:49.182Z,23.65
2023-03-06T18:18:35.946Z,23.65
2023-03-06T18:19:19.351Z,23.65
2023-03-06T18:20:02.501Z,23.65
2023-03-06T18:20:48.664Z,23.64
2023-03-06T18:21:33.670Z,23.64
2023-03-06T18:22:18.753Z,23.61
2023-03-06T18:23:07.598Z,23.59
2023-03-06T18:23:51.362Z,23.59
2023-03-06T18:24:33.524Z,23.60
2023-03-06T18:25:23.110Z,23.59
2023-03-06T18:26:21.271Z,23.58
2023-03-06T18:27:07.830Z,23.59
2023-03-06T18:28:13.582Z,23.60
2023-03-06T18:29:04.783Z,23.57
2023-03-06T18:29:50.119Z,23.55
2023-03-06T18:30:41.463Z,23.55
2023-03-06T18:31:42.779Z,23.57
2023-03-06T18:32:26.832Z,23.56
2023-03-06T18:33:12.502Z,23.57
2023-03-06T18:33:59.402Z,23.58
2023-03-06T18:34:49.790Z,23.55
2023-03-06T18:35:33.421Z,23.55
2023-03-06T18:36:17.126Z,23.55
2023-03-06T18:36:59.282Z,23.54
2023-03-06T18:37:41.647Z,23.54
2023-03-06T18:38:23.941Z,23.53
2023-03-06T18:39:09.789Z,23.53
2023-03-06T18:39:51.894Z,23.52
2023-03-06T18:40:37.320Z,23.52
2023-03-06T18:41:20.479Z,23.52
2023-03-06T18:42:07.396Z,23.51
2023-03-06T18:42:50.051Z,23.52
2023-03-06T18:43:32.370Z,23.52
2023-03-06T18:44:19.391Z,23.51
2023-03-06T18:45:04.656Z,23.49
2023-03-06T18:45:55.314Z,23.50
2023-03-06T18:46:39.433Z,23.49
2023-03-06T18:47:21.790Z,23.49
2023-03-06T18:48:05.920Z,23.48
2023-03-06T18:48:51.659Z,23.47
2023-03-06T18:49:33.810Z,23.48
2023-03-06T18:50:17.794Z,23.47
2023-03-06T18:51:25.396Z,23.46
2023-03-06T18:52:09.250Z,23.47
2023-03-06T18:52:51.334Z,23.47
2023-03-06T18:53:34.004Z,23.47
2023-03-06T18:54:16.572Z,23.46
2023-03-06T18:55:00.813Z,23.44
2023-03-06T18:55:53.698Z,23.44
2023-03-06T18:56:36.052Z,23.38
2023-03-06T18:57:18.399Z,23.39
2023-03-06T18:58:00.469Z,23.39
2023-03-06T18:58:43.582Z,23.38
2023-03-06T18:59:26.528Z,23.38
2023-03-06T19:00:08.868Z,23.39
2023-03-06T19:00:51.434Z,23.39
2023-03-06T19:01:34.816Z,23.38
2023-03-06T19:02:17.101Z,23.39
2023-03-06T19:03:01.636Z,23.37
2023-03-06T19:03:44.448Z,23.37
2023-03-06T19:04:27.365Z,23.37
2023-03-06T19:05:09.644Z,23.39
2023-03-06T19:05:51.775Z,23.39
2023-03-06T19:06:33.979Z,23.39
2023-03-06T19:07:16.343Z,23.39
2023-03-06T19:07:59.092Z,23.38
2023-03-06T19:08:41.497Z,23.37
2023-03-06T19:09:23.966Z,23.36
2023-03-06T19:10:09.526Z,23.38
2023-03-06T19:10:54.875Z,23.38
2023-03-06T19:11:40.356Z,23.37
2023-03-06T19:12:32.957Z,23.38
2023-03-06T19:13:16.061Z,23.38
2023-03-06T19:13:58.497Z,23.38
2023-03-06T19:14:40.579Z,23.35
2023-03-06T19:15:22.706Z,23.34
2023-03-06T19:16:05.634Z,23.34
2023-03-06T19:16:50.881Z,23.36
2023-03-06T19:17:33.525Z,23.32
2023-03-06T19:18:19.228Z,23.32
2023-03-06T19:19:01.488Z,23.32
2023-03-06T19:19:44.150Z,23.33
2023-03-06T19:20:27.095Z,23.33
2023-03-06T19:21:15.274Z,23.33
2023-03-06T19:21:58.978Z,23.33
2023-03-06T19:22:41.176Z,23.34
2023-03-06T19:23:26.481Z,23.34
2023-03-06T19:24:13.620Z,23.34
2023-03-06T19:24:55.980Z,23.33
2023-03-06T19:25:38.172Z,23.32
2023-03-06T19:26:20.722Z,23.33
2023-03-06T19:27:02.729Z,23.29
2023-03-06T19:27:46.524Z,23.28
2023-03-06T19:28:28.773Z,23.26
2023-03-06T19:29:10.950Z,23.26
2023-03-06T19:29:53.094Z,23.26
2023-03-06T19:30:35.266Z,23.26
2023-03-06T19:31:25.437Z,23.24
2023-03-06T19:32:08.094Z,23.27
2023-03-06T19:32:50.325Z,23.27
2023-03-06T19:33:32.680Z,23.30
2023-03-06T19:34:14.791Z,23.30
2023-03-06T19:35:03.913Z,23.29
2023-03-06T19:35:48.520Z,23.28
2023-03-06T19:36:33.984Z,23.27
2023-03-06T19:37:16.486Z,23.26
2023-03-06T19:37:58.764Z,23.27
2023-03-06T19:38:41.727Z,23.26
2023-03-06T19:39:24.623Z,23.25
2023-03-06T19:40:09.990Z,23.26
2023-03-06T19:40:52.441Z,23.26
2023-03-06T19:41:38.046Z,23.25
2023-03-06T19:42:23.216Z,23.23
2023-03-06T19:43:05.220Z,23.24
2023-03-06T19:43:52.483Z,23.24
2023-03-06T19:44:35.020Z,23.22
2023-03-06T19:45:17.381Z,23.19
2023-03-06T19:46:00.824Z,23.22
2023-03-06T19:46:45.888Z,23.22
2023-03-06T19:47:28.158Z,23.22
2023-03-06T19:48:12.563Z,23.15
2023-03-06T19:49:00.137Z,23.17
2023-03-06T19:49:42.944Z,23.21
2023-03-06T19:50:29.882Z,23.19
2023-03-06T19:51:12.792Z,23.21
2023-03-06T19:51:54.982Z,23.21
2023-03-06T19:52:39.512Z,23.21
2023-03-06T19:53:25.413Z,23.19
2023-03-06T19:54:10.357Z,23.20
2023-03-06T19:54:56.171Z,23.19
2023-03-06T19:55:38.992Z,23.21
2023-03-06T19:56:26.417Z,23.23
2023-03-06T19:57:14.247Z,23.22
2023-03-06T19:57:56.344Z,23.22
2023-03-06T19:58:38.624Z,23.18
2023-03-06T19:59:20.854Z,23.21
2023-03-06T20:00:03.487Z,23.22
2023-03-06T20:00:45.681Z,23.23
2023-03-06T20:01:28.803Z,23.21
2023-03-06T20:02:11.871Z,23.22
2023-03-06T20:02:53.975Z,23.21
2023-03-06T20:03:37.243Z,23.20
2023-03-06T20:04:19.920Z,23.22
2023-03-06T20:05:02.113Z,23.21
2023-03-06T20:05:50.793Z,23.21
2023-03-06T20:06:36.961Z,23.19
2023-03-06T20:07:23.165Z,23.17
2023-03-06T20:08:05.528Z,23.18
2023-03-06T20:08:48.313Z,23.18
2023-03-06T20:09:33.724Z,23.19
2023-03-06T20:10:16.094Z,23.19
2023-03-06T20:10:58.271Z,23.20
2023-03-06T20:11:40.413Z,23.18
2023-03-06T20:12:24.921Z,23.18
2023-03-06T20:13:09.823Z,23.17
2023-03-06T20:13:53.047Z,23.16
2023-03-06T20:14:35.381Z,23.17
2023-03-06T20:15:24.887Z,23.18
2023-03-06T20:16:10.516Z,23.18
2023-03-06T20:16:52.755Z,23.19
2023-03-06T20:17:34.977Z,23.19
2023-03-06T20:18:17.597Z,23.18
2023-03-06T20:19:06.207Z,23.18
2023-03-06T20:19:51.625Z,23.18
2023-03-06T20:20:33.786Z,23.18
2023-03-06T20:21:17.205Z,23.16
2023-03-06T20:21:59.622Z,23.16
2023-03-06T20:22:41.796Z,23.15
2023-03-06T20:23:27.532Z,23.10
2023-03-06T20:24:18.083Z,23.11
2023-03-06T20:25:00.233Z,23.10
2023-03-06T20:25:42.602Z,23.10
2023-03-06T20:26:26.388Z,23.11
2023-03-06T20:27:11.481Z,23.11
2023-03-06T20:27:53.632Z,23.11
2023-03-06T20:28:39.754Z,23.06
2023-03-06T20:29:22.962Z,23.08
2023-03-06T20:30:07.884Z,23.06
2023-03-06T20:30:50.388Z,23.10
2023-03-06T20:31:32.972Z,23.10
2023-03-06T20:32:15.171Z,23.11
2023-03-06T20:32:57.425Z,23.12
2023-03-06T20:33:45.084Z,23.12
2023-03-06T20:34:27.280Z,23.09
2023-03-06T20:35:09.861Z,23.03
2023-03-06T20:35:52.125Z,23.06
2023-03-06T20:36:40.763Z,23.07
2023-03-06T20:37:22.937Z,23.05
2023-03-06T20:38:08.261Z,23.06
2023-03-06T20:38:51.105Z,23.09
2023-03-06T20:39:33.872Z,23.10
2023-03-06T20:40:16.694Z,23.10
2023-03-06T20:41:05.371Z,23.10
2023-03-06T20:41:48.401Z,23.07
2023-03-06T20:42:30.617Z,23.06
2023-03-06T20:43:12.824Z,23.06
2023-03-06T20:43:57.298Z,23.05
2023-03-06T20:44:39.589Z,23.02
2023-03-06T20:45:21.730Z,23.01
2023-03-06T20:46:06.414Z,23.03
2023-03-06T20:46:49.088Z,23.04
2023-03-06T20:47:31.670Z,23.00
2023-03-06T20:48:14.172Z,22.96
2023-03-06T20:49:00.250Z,22.99
2023-03-06T20:49:42.571Z,23.01
2023-03-06T20:50:26.386Z,23.03
2023-03-06T20:51:16.877Z,23.03
2023-03-06T20:51:58.857Z,23.02
2023-03-06T20:52:41.489Z,23.00
2023-03-06T20:53:23.833Z,22.93
2023-03-06T20:54:08.873Z,22.89
2023-03-06T20:54:53.887Z,22.89
2023-03-06T20:55:38.962Z,22.92
2023-03-06T20:56:26.278Z,22.89
2023-03-06T20:57:14.097Z,22.89
2023-03-06T20:57:59.458Z,22.86
2023-03-06T20:58:45.398Z,22.86
2023-03-06T20:59:27.553Z,22.85
2023-03-06T21:00:11.344Z,22.84
2023-03-06T21:00:53.445Z,22.85
2023-03-06T21:01:41.352Z,22.88
2023-03-06T21:02:26.634Z,22.90
2023-03-06T21:03:12.797Z,22.91
2023-03-06T21:03:56.986Z,22.91
2023-03-06T21:04:41.247Z,22.93
2023-03-06T21:05:23.610Z,22.92
2023-03-06T21:06:05.946Z,22.92
2023-03-06T21:06:49.691Z,22.92
2023-03-06T21:07:36.556Z,22.92
2023-03-06T21:08:20.493Z,22.92
2023-03-06T21:09:05.089Z,22.92
2023-03-06T21:09:47.961Z,22.92
2023-03-06T21:10:31.457Z,22.89
2023-03-06T21:11:14.181Z,22.89
2023-03-06T21:12:00.586Z,22.91
2023-03-06T21:12:42.789Z,22.91
2023-03-06T21:13:24.974Z,22.92
2023-03-06T21:14:07.229Z,22.93
2023-03-06T21:14:49.363Z,22.91
2023-03-06T21:15:31.811Z,22.86
2023-03-06T21:16:21.120Z,22.90
2023-03-06T21:17:03.328Z,22.92
2023-03-06T21:17:48.334Z,22.93
2023-03-06T21:18:30.613Z,22.93
2023-03-06T21:19:13.186Z,22.93
2023-03-06T21:19:57.760Z,22.92
2023-03-06T21:20:41.213Z,22.94
2023-03-06T21:21:25.055Z,22.95
2023-03-06T21:22:10.833Z,22.96
2023-03-06T21:22:53.020Z,22.96
2023-03-06T21:23:35.474Z,22.98
2023-03-06T21:24:18.880Z,22.97
2023-03-06T21:25:02.133Z,22.96
2023-03-06T21:25:52.618Z,22.93
2023-03-06T21:26:36.983Z,22.94
2023-03-06T21:27:21.106Z,22.93
2023-03-06T21:28:03.320Z,22.91
2023-03-06T21:28:45.993Z,22.94
2023-03-06T21:29:33.868Z,22.95
2023-03-06T21:30:16.101Z,22.97
2023-03-06T21:31:20.820Z,22.97
2023-03-06T21:32:02.990Z,22.99
2023-03-06T21:32:45.558Z,22.98
2023-03-06T21:33:27.609Z,23.00
2023-03-06T21:34:11.646Z,23.01
2023-03-06T21:34:56.678Z,22.99
2023-03-06T21:35:40.763Z,22.95
2023-03-06T21:36:23.589Z,22.97
2023-03-06T21:37:05.718Z,22.94
2023-03-06T21:37:48.332Z,22.96
2023-03-06T21:38:30.642Z,22.99
2023-03-06T21:39:14.390Z,23.00
2023-03-06T21:40:00.480Z,22.97
2023-03-06T21:40:46.017Z,22.96
2023-03-06T21:41:32.828Z,22.94
2023-03-06T21:42:17.277Z,22.96
2023-03-06T21:43:03.710Z,23.00
2023-03-06T21:43:46.120Z,23.00
2023-03-06T21:44:28.247Z,23.03
2023-03-06T21:45:14.179Z,22.99
2023-03-06T21:46:01.917Z,23.02
2023-03-06T21:46:44.294Z,23.02
2023-03-06T21:47:28.956Z,23.01
2023-03-06T21:48:11.105Z,23.00
2023-03-06T21:48:54.070Z,23.00
2023-03-06T21:49:36.229Z,23.00
2023-03-06T21:50:18.557Z,22.99
2023-03-06T21:51:13.062Z,22.99
2023-03-06T21:51:55.557Z,23.03
2023-03-06T21:52:37.773Z,23.03
2023-03-06T21:53:19.917Z,23.01
2023-03-06T21:54:05.569Z,23.00
2023-03-06T21:54:51.929Z,22.99
2023-03-06T21:55:37.556Z,22.97
2023-03-06T21:56:22.670Z,22.97
2023-03-06T21:57:05.319Z,22.95
2023-03-06T21:57:57.088Z,22.95
2023-03-06T21:58:44.370Z,23.00
2023-03-06T21:59:29.255Z,23.02
2023-03-06T22:00:14.379Z,23.04
2023-03-06T22:00:57.613Z,23.03
2023-03-06T22:01:39.987Z,23.03
2023-03-06T22:02:22.157Z,23.01
2023-03-06T22:03:05.127Z,23.02
2023-03-06T22:03:52.011Z,23.02
2023-03-06T22:04:35.604Z,23.01
2023-03-06T22:05:18.350Z,23.00
2023-03-06T22:06:16.180Z,23.02
2023-03-06T22:06:58.381Z,23.02
2023-03-06T22:07:40.578Z,23.01
2023-03-06T22:08:24.749Z,23.01
2023-03-06T22:09:07.015Z,23.02
2023-03-06T22:09:54.444Z,23.02
2023-03-06T22:10:39.626Z,22.99
2023-03-06T22:11:26.726Z,22.96
2023-03-06T22:12:09.066Z,22.98
2023-03-06T22:12:51.218Z,22.99
2023-03-06T22:13:33.650Z,22.97
2023-03-06T22:14:16.140Z,22.97
2023-03-06T22:14:58.317Z,22.98
2023-03-06T22:15:48.627Z,23.01
2023-03-06T22:16:31.109Z,23.02
2023-03-06T22:17:13.871Z,23.02
2023-03-06T22:17:56.259Z,23.01
2023-03-06T22:18:39.200Z,22.96
2023-03-06T22:19:32.995Z,22.96
2023-03-06T22:20:15.596Z,22.97
2023-03-06T22:20:58.056Z,22.97
2023-03-06T22:21:41.280Z,22.97
2023-03-06T22:22:25.681Z,22.97
2023-03-06T22:23:10.286Z,22.99
2023-03-06T22:23:57.112Z,22.99
2023-03-06T22:24:39.426Z,22.99
2023-03-06T22:25:21.528Z,23.01
2023-03-06T22:26:09.931Z,22.99
2023-03-06T22:26:54.549Z,22.99
2023-03-06T22:27:16.835Z,22.98
2023-03-06T22:27:38.730Z,22.99
2023-03-06T22:28:00.649Z,22.98
2023-03-06T22:28:22.536Z,22.99
2023-03-06T22:28:45.254Z,22.99
2023-03-06T22:29:07.208Z,23.01
2023-03-06T22:29:29.165Z,23.02
2023-03-06T22:29:50.995Z,23.02
2023-03-06T22:30:13.553Z,23.00
2023-03-06T22:30:35.286Z,22.99
2023-03-06T22:31:06.965Z,22.93
2023-03-06T22:31:29.345Z,22.85
2023-03-06T22:31:53.651Z,22.86
2023-03-06T22:32:18.701Z,22.89
2023-03-06T22:32:46.040Z,22.83
2023-03-06T22:33:10.496Z,22.82
2023-03-06T22:33:34.861Z,22.79
2023-03-06T22:33:58.965Z,22.78
2023-03-06T22:34:20.784Z,22.71
2023-03-06T22:34:42.546Z,22.69
2023-03-06T22:35:11.589Z,22.62
2023-03-06T22:35:33.493Z,22.59
2023-03-06T22:36:02.713Z,22.53
2023-03-06T22:36:33.755Z,22.49
2023-03-06T22:37:02.384Z,22.51
2023-03-06T22:37:33.502Z,22.50
2023-03-06T22:37:58.843Z,22.52
2023-03-06T22:38:23.398Z,22.54
2023-03-06T22:38:46.669Z,22.53
2023-03-06T22:39:08.671Z,22.53
2023-03-06T22:39:33.591Z,22.57
2023-03-06T22:39:57.947Z,22.53
2023-03-06T22:40:20.129Z,22.45
2023-03-06T22:40:42.153Z,22.50
2023-03-06T22:41:06.130Z,22.48
2023-03-06T22:41:33.734Z,22.53
2023-03-06T22:42:02.646Z,22.47
2023-03-06T22:42:32.649Z,22.50
2023-03-06T22:43:00.891Z,22.53
2023-03-06T22:43:24.334Z,22.50
2023-03-06T22:43:46.540Z,22.42
2023-03-06T22:44:17.790Z,22.41
2023-03-06T22:44:40.121Z,22.48
2023-03-06T22:45:05.385Z,22.53
2023-03-06T22:45:30.255Z,22.64
2023-03-06T22:45:53.499Z,22.59
2023-03-06T22:46:19.046Z,22.58
2023-03-06T22:46:41.749Z,22.62
2023-03-06T22:47:09.775Z,22.63
2023-03-06T22:47:40.969Z,22.69
2023-03-06T22:48:10.842Z,22.61
2023-03-06T22:48:41.508Z,22.58
2023-03-06T22:49:05.400Z,22.54
2023-03-06T22:49:27.458Z,22.68
2023-03-06T22:49:54.302Z,22.73
2023-03-06T22:50:21.703Z,22.78
2023-03-06T22:50:44.292Z,22.80
2023-03-06T22:51:17.625Z,22.70
2023-03-06T22:51:41.041Z,22.72
2023-03-06T22:52:03.621Z,22.67
2023-03-06T22:52:25.692Z,22.64
2023-03-06T22:52:47.630Z,22.66
2023-03-06T22:53:09.583Z,22.52
2023-03-06T22:53:32.852Z,22.61
2023-03-06T22:53:58.136Z,22.63
2023-03-06T22:54:20.465Z,22.61
2023-03-06T22:54:51.012Z,22.60
2023-03-06T22:55:12.754Z,22.49
2023-03-06T22:55:35.355Z,22.45
2023-03-06T22:56:01.925Z,22.40
2023-03-06T22:56:23.715Z,22.37
2023-03-06T22:57:07.609Z,22.44
2023-03-06T22:57:49.828Z,22.54
2023-03-06T22:58:37.443Z,22.47
2023-03-06T22:59:17.967Z,22.37
2023-03-06T22:59:58.759Z,22.47
2023-03-06T23:00:57.435Z,22.65
2023-03-06T23:01:43.078Z,22.88
2023-03-06T23:02:46.447Z,22.81
2023-03-06T23:03:31.361Z,22.69
2023-03-06T23:04:14.279Z,22.63
2023-03-06T23:05:04.125Z,22.61
2023-03-06T23:05:45.102Z,22.51
2023-03-06T23:06:36.041Z,22.44
2023-03-06T23:07:16.719Z,22.39
2023-03-06T23:07:57.236Z,22.29
2023-03-06T23:09:23.280Z,22.25
2023-03-06T23:10:04.816Z,22.18
2023-03-06T23:10:45.005Z,22.08
2023-03-06T23:11:28.102Z,22.03
2023-03-06T23:12:14.254Z,22.05
2023-03-06T23:12:54.580Z,22.05
2023-03-06T23:13:34.699Z,22.04
2023-03-06T23:14:16.741Z,22.10
2023-03-06T23:14:57.377Z,22.09
2023-03-06T23:15:37.634Z,21.98
2023-03-06T23:16:18.096Z,22.05
2023-03-06T23:16:58.463Z,22.07
2023-03-06T23:17:38.828Z,21.93
2023-03-06T23:18:19.316Z,21.75
2023-03-06T23:18:59.993Z,21.77
2023-03-06T23:19:40.812Z,21.85
2023-03-06T23:20:21.682Z,22.03
2023-03-06T23:21:05.983Z,22.10
2023-03-06T23:21:47.735Z,22.12
2023-03-06T23:22:28.184Z,22.27
2023-03-06T23:23:08.556Z,22.34
2023-03-06T23:23:50.040Z,22.36
2023-03-06T23:24:31.777Z,22.15
2023-03-06T23:25:12.568Z,22.27
2023-03-06T23:25:59.531Z,22.16
2023-03-06T23:26:41.107Z,22.24
2023-03-06T23:27:21.776Z,22.21
2023-03-06T23:28:03.195Z,22.33
2023-03-06T23:28:47.080Z,22.20
2023-03-06T23:29:27.404Z,22.30
2023-03-06T23:30:09.529Z,22.41
2023-03-06T23:30:50.026Z,22.38
2023-03-06T23:31:35.043Z,22.46
2023-03-06T23:32:17.252Z,22.44
2023-03-06T23:32:57.776Z,22.41
2023-03-06T23:33:42.343Z,22.47
